createdAt,value
2023-01-29T00:02:06.927Z,8.57
2023-01-29T00:04:33.544Z,10.00
2023-01-29T00:07:00.394Z,8.95
2023-01-29T00:09:28.414Z,8.63
2023-01-29T00:11:55.031Z,9.55
2023-01-29T00:14:21.668Z,8.23
2023-01-29T00:16:48.378Z,9.40
2023-01-29T00:19:15.113Z,10.63
2023-01-29T00:21:41.719Z,8.73
2023-01-29T00:24:08.446Z,7.40
2023-01-29T00:26:35.424Z,8.80
2023-01-29T00:29:02.749Z,8.82
2023-01-29T00:31:29.997Z,8.55
2023-01-29T00:33:57.191Z,10.05
2023-01-29T00:36:25.571Z,10.07
2023-01-29T00:38:58.763Z,9.38
2023-01-29T00:41:50.172Z,8.00
2023-01-29T00:44:36.280Z,8.77
2023-01-29T00:47:03.467Z,7.97
2023-01-29T00:49:32.865Z,9.38
2023-01-29T00:52:18.024Z,8.70
2023-01-29T00:54:44.618Z,8.02
2023-01-29T00:57:11.274Z,8.73
2023-01-29T00:59:37.944Z,8.90
2023-01-29T01:02:23.130Z,8.60
2023-01-29T01:04:49.716Z,7.63
2023-01-29T01:07:16.371Z,8.10
2023-01-29T01:10:01.620Z,9.05
2023-01-29T01:12:28.551Z,7.43
2023-01-29T01:14:55.236Z,7.10
2023-01-29T01:17:22.277Z,7.80
2023-01-29T01:19:48.914Z,7.85
2023-01-29T01:22:15.496Z,7.75
2023-01-29T01:24:42.173Z,7.93
2023-01-29T01:27:08.828Z,8.23
2023-01-29T01:29:35.466Z,7.15
2023-01-29T01:32:02.397Z,7.65
2023-01-29T01:34:29.118Z,8.13
2023-01-29T01:36:56.470Z,7.68
2023-01-29T01:39:25.023Z,6.30
2023-01-29T01:41:56.405Z,7.40
2023-01-29T01:44:52.492Z,7.60
2023-01-29T01:47:45.352Z,7.32
2023-01-29T01:50:17.993Z,8.07
2023-01-29T01:52:49.344Z,8.27
2023-01-29T01:55:19.574Z,7.93
2023-01-29T01:57:50.785Z,7.50
2023-01-29T02:00:20.266Z,8.48
2023-01-29T02:03:06.680Z,8.25
2023-01-29T02:05:54.704Z,7.72
2023-01-29T02:09:02.993Z,9.02
2023-01-29T02:11:30.411Z,9.20
2023-01-29T02:13:57.618Z,7.53
2023-01-29T02:16:24.196Z,7.95
2023-01-29T02:18:51.407Z,8.45
2023-01-29T02:21:38.996Z,9.10
2023-01-29T02:24:34.170Z,9.30
2023-01-29T02:27:09.104Z,8.40
2023-01-29T02:29:44.744Z,8.60
2023-01-29T02:32:29.507Z,8.45
2023-01-29T02:35:23.999Z,8.77
2023-01-29T02:38:01.732Z,8.52
2023-01-29T02:40:40.898Z,8.40
2023-01-29T02:43:10.479Z,9.25
2023-01-29T02:45:46.563Z,9.52
2023-01-29T02:48:18.399Z,8.32
2023-01-29T02:50:58.987Z,9.27
2023-01-29T02:53:44.395Z,9.55
2023-01-29T02:56:16.906Z,8.98
2023-01-29T02:58:48.503Z,7.43
2023-01-29T03:01:30.353Z,8.38
2023-01-29T03:04:02.507Z,8.85
2023-01-29T03:06:49.337Z,8.70
2023-01-29T03:09:28.358Z,6.80
2023-01-29T03:12:02.084Z,7.80
2023-01-29T03:15:00.511Z,7.22
2023-01-29T03:17:32.464Z,7.82
2023-01-29T03:20:00.205Z,7.72
2023-01-29T03:22:27.924Z,6.18
2023-01-29T03:25:17.089Z,6.80
2023-01-29T03:28:11.148Z,6.57
2023-01-29T03:31:01.607Z,7.78
2023-01-29T03:33:32.565Z,6.75
2023-01-29T03:36:05.112Z,6.63
2023-01-29T03:38:32.215Z,6.78
2023-01-29T03:41:14.153Z,7.25
2023-01-29T03:43:56.593Z,6.47
2023-01-29T03:49:08.461Z,6.78
2023-01-29T03:51:35.316Z,6.20
2023-01-29T03:54:27.005Z,6.15
2023-01-29T03:57:19.243Z,5.93
2023-01-29T03:59:48.698Z,6.47
2023-01-29T04:02:27.660Z,5.95
2023-01-29T04:04:59.482Z,5.63
2023-01-29T04:07:29.736Z,5.43
2023-01-29T04:10:00.822Z,5.03
2023-01-29T04:12:36.122Z,4.95
2023-01-29T04:15:05.832Z,4.72
2023-01-29T04:17:39.828Z,5.82
2023-01-29T04:20:07.196Z,5.00
2023-01-29T04:22:38.818Z,5.88
2023-01-29T04:25:15.951Z,5.72
2023-01-29T04:27:52.278Z,5.22
2023-01-29T04:30:50.419Z,5.63
2023-01-29T04:33:44.802Z,5.85
2023-01-29T04:36:14.194Z,6.43
2023-01-29T04:38:40.807Z,6.90
2023-01-29T04:41:26.810Z,6.60
2023-01-29T04:44:15.355Z,6.57
2023-01-29T04:46:52.934Z,6.20
2023-01-29T04:49:25.797Z,6.68
2023-01-29T04:52:00.749Z,6.18
2023-01-29T04:54:45.609Z,5.68
2023-01-29T04:57:23.198Z,5.95
2023-01-29T05:00:14.903Z,6.22
2023-01-29T05:02:44.667Z,6.78
2023-01-29T05:05:13.885Z,6.03
2023-01-29T05:07:42.842Z,5.68
2023-01-29T05:10:12.859Z,6.60
2023-01-29T05:12:41.274Z,6.35
2023-01-29T05:15:19.553Z,6.82
2023-01-29T05:17:46.161Z,5.85
2023-01-29T05:20:13.854Z,5.93
2023-01-29T05:22:42.562Z,6.35
2023-01-29T05:25:22.721Z,6.00
2023-01-29T05:28:14.168Z,6.18
2023-01-29T05:30:40.829Z,5.72
2023-01-29T05:33:25.805Z,6.07
2023-01-29T05:35:52.509Z,5.50
2023-01-29T05:38:19.636Z,5.78
2023-01-29T05:40:46.407Z,5.82
2023-01-29T05:43:24.922Z,5.45
2023-01-29T05:45:56.488Z,6.35
2023-01-29T05:48:24.821Z,5.93
2023-01-29T05:50:54.866Z,5.32
2023-01-29T05:53:21.481Z,6.25
2023-01-29T05:55:48.476Z,5.93
2023-01-29T05:58:15.322Z,5.40
2023-01-29T06:00:41.961Z,6.72
2023-01-29T06:03:08.566Z,6.13
2023-01-29T06:05:38.177Z,6.68
2023-01-29T06:08:05.364Z,6.20
2023-01-29T06:10:32.085Z,5.72
2023-01-29T06:12:58.640Z,6.20
2023-01-29T06:15:26.677Z,6.20
2023-01-29T06:17:57.451Z,6.72
2023-01-29T06:20:24.564Z,6.97
2023-01-29T06:22:51.107Z,7.43
2023-01-29T06:25:17.803Z,7.63
2023-01-29T06:27:44.450Z,7.47
2023-01-29T06:30:11.607Z,7.85
2023-01-29T06:32:38.297Z,7.78
2023-01-29T06:35:05.392Z,7.10
2023-01-29T06:37:32.049Z,8.48
2023-01-29T06:39:58.652Z,8.10
2023-01-29T06:42:28.106Z,8.10
2023-01-29T06:44:58.180Z,8.63
2023-01-29T06:47:25.111Z,8.65
2023-01-29T06:49:52.217Z,9.45
2023-01-29T06:52:18.995Z,10.00
2023-01-29T06:54:45.667Z,8.68
2023-01-29T06:57:12.371Z,9.00
2023-01-29T06:59:38.958Z,9.32
2023-01-29T07:02:05.720Z,10.10
2023-01-29T07:04:32.408Z,8.18
2023-01-29T07:07:01.718Z,8.68
2023-01-29T07:09:28.371Z,10.20
2023-01-29T07:11:55.158Z,9.88
2023-01-29T07:14:21.975Z,8.77
2023-01-29T07:16:48.665Z,8.82
2023-01-29T07:19:15.546Z,9.65
2023-01-29T07:21:42.387Z,7.95
2023-01-29T07:24:09.456Z,7.35
2023-01-29T07:26:36.047Z,9.77
2023-01-29T07:29:05.043Z,9.15
2023-01-29T07:31:39.161Z,9.20
2023-01-29T07:34:05.872Z,8.63
2023-01-29T07:36:32.441Z,9.35
2023-01-29T07:38:59.059Z,8.90
2023-01-29T07:41:25.853Z,8.40
2023-01-29T07:43:52.440Z,8.32
2023-01-29T07:46:19.132Z,9.70
2023-01-29T07:48:45.800Z,8.70
2023-01-29T07:51:12.450Z,9.60
2023-01-29T07:53:39.073Z,10.05
2023-01-29T07:56:06.001Z,9.27
2023-01-29T07:58:34.969Z,8.70
2023-01-29T08:01:07.669Z,10.25
2023-01-29T08:03:34.893Z,9.68
2023-01-29T08:06:01.674Z,9.75
2023-01-29T08:08:28.413Z,7.70
2023-01-29T08:10:55.042Z,8.23
2023-01-29T08:13:21.749Z,11.02
2023-01-29T08:15:48.440Z,8.00
2023-01-29T08:18:15.289Z,8.20
2023-01-29T08:20:41.955Z,8.07
2023-01-29T08:23:14.310Z,8.25
2023-01-29T08:25:41.379Z,8.70
2023-01-29T08:28:08.886Z,9.18
2023-01-29T08:30:36.156Z,9.27
2023-01-29T08:33:04.250Z,8.45
2023-01-29T08:35:31.188Z,8.55
2023-01-29T08:38:00.371Z,8.95
2023-01-29T08:40:32.777Z,9.15
2023-01-29T08:43:04.161Z,8.48
2023-01-29T08:45:34.737Z,8.23
2023-01-29T08:48:01.533Z,8.98
2023-01-29T08:50:30.056Z,8.95
2023-01-29T08:53:01.912Z,8.15
2023-01-29T08:55:28.995Z,8.90
2023-01-29T08:57:57.497Z,8.15
2023-01-29T09:00:24.921Z,8.77
2023-01-29T09:02:51.593Z,8.30
2023-01-29T09:05:18.659Z,9.55
2023-01-29T09:07:45.574Z,9.52
2023-01-29T09:10:12.373Z,11.60
2023-01-29T09:12:39.186Z,11.23
2023-01-29T09:15:06.195Z,9.80
2023-01-29T09:17:32.815Z,9.70
2023-01-29T09:19:59.418Z,11.20
2023-01-29T09:22:25.998Z,11.40
2023-01-29T09:24:52.602Z,10.38
2023-01-29T09:27:19.413Z,11.18
2023-01-29T09:29:46.037Z,11.30
2023-01-29T09:32:12.839Z,10.23
2023-01-29T09:34:39.417Z,8.70
2023-01-29T09:37:06.681Z,10.52
2023-01-29T09:39:33.619Z,11.05
2023-01-29T09:42:19.398Z,9.38
2023-01-29T09:45:01.385Z,9.68
2023-01-29T09:47:29.893Z,9.30
2023-01-29T09:50:13.280Z,9.77
2023-01-29T09:52:42.399Z,10.80
2023-01-29T09:55:29.941Z,9.27
2023-01-29T09:58:00.208Z,9.93
2023-01-29T10:00:46.017Z,9.32
2023-01-29T10:03:31.284Z,10.00
2023-01-29T10:06:23.702Z,10.60
2023-01-29T10:09:08.939Z,10.23
2023-01-29T10:11:50.680Z,9.65
2023-01-29T10:14:54.175Z,11.65
2023-01-29T10:17:39.533Z,11.23
2023-01-29T10:20:12.057Z,10.80
2023-01-29T10:22:52.201Z,9.70
2023-01-29T10:25:21.569Z,10.80
2023-01-29T10:27:55.170Z,9.55
2023-01-29T10:30:37.017Z,11.13
2023-01-29T10:33:05.722Z,12.20
2023-01-29T10:35:39.425Z,10.80
2023-01-29T10:38:13.807Z,11.93
2023-01-29T10:40:51.501Z,13.27
2023-01-29T10:43:29.273Z,13.60
2023-01-29T10:46:07.889Z,13.30
2023-01-29T10:48:59.362Z,13.95
2023-01-29T10:51:53.393Z,14.13
2023-01-29T10:54:33.825Z,11.70
2023-01-29T10:57:38.876Z,12.88
2023-01-29T11:00:19.250Z,13.52
2023-01-29T11:02:48.681Z,11.15
2023-01-29T11:05:36.377Z,14.00
2023-01-29T11:08:15.073Z,12.02
2023-01-29T11:11:15.463Z,12.65
2023-01-29T11:13:53.054Z,11.77
2023-01-29T11:16:19.680Z,12.27
2023-01-29T11:19:01.227Z,11.40
2023-01-29T11:21:29.738Z,13.55
2023-01-29T11:24:10.968Z,13.35
2023-01-29T11:26:40.840Z,14.48
2023-01-29T11:29:30.095Z,12.82
2023-01-29T11:31:59.023Z,14.07
2023-01-29T11:34:27.793Z,14.15
2023-01-29T11:37:15.300Z,11.13
2023-01-29T11:39:48.905Z,11.38
2023-01-29T11:42:21.378Z,12.30
2023-01-29T11:44:48.343Z,12.35
2023-01-29T11:47:15.449Z,13.75
2023-01-29T11:50:02.904Z,14.02
2023-01-29T11:52:39.202Z,11.95
2023-01-29T11:55:16.366Z,13.00
2023-01-29T11:57:47.010Z,12.98
2023-01-29T12:00:33.215Z,11.73
2023-01-29T12:03:06.677Z,11.55
2023-01-29T12:05:33.956Z,12.30
2023-01-29T12:08:02.417Z,13.35
2023-01-29T12:10:34.397Z,14.77
2023-01-29T12:13:05.569Z,13.30
2023-01-29T12:15:32.191Z,13.32
2023-01-29T12:18:05.610Z,13.02
2023-01-29T12:20:46.710Z,13.05
2023-01-29T12:23:36.316Z,13.32
2023-01-29T12:26:19.542Z,12.85
2023-01-29T12:28:46.184Z,13.15
2023-01-29T12:31:40.739Z,12.43
2023-01-29T12:34:45.692Z,11.93
2023-01-29T12:37:28.091Z,13.38
2023-01-29T12:42:24.483Z,11.68
2023-01-29T12:45:01.510Z,12.27
2023-01-29T12:47:34.276Z,12.45
2023-01-29T12:50:06.884Z,9.93
2023-01-29T12:52:38.327Z,11.32
2023-01-29T12:55:19.560Z,10.73
2023-01-29T12:57:49.364Z,11.10
2023-01-29T13:00:25.996Z,12.00
2023-01-29T13:02:59.994Z,12.40
2023-01-29T13:05:31.033Z,13.65
2023-01-29T13:08:11.130Z,11.90
2023-01-29T13:10:43.065Z,13.73
2023-01-29T13:13:22.327Z,12.25
2023-01-29T13:15:49.196Z,12.35
2023-01-29T13:18:18.523Z,11.57
2023-01-29T13:20:48.199Z,10.45
2023-01-29T13:23:22.118Z,11.32
2023-01-29T13:25:54.770Z,11.68
2023-01-29T13:28:25.789Z,10.82
2023-01-29T13:31:29.786Z,12.38
2023-01-29T13:34:21.560Z,11.10
2023-01-29T13:36:52.335Z,10.77
2023-01-29T13:39:29.416Z,11.70
2023-01-29T13:41:58.349Z,11.02
2023-01-29T13:44:37.855Z,12.57
2023-01-29T13:47:07.787Z,12.30
2023-01-29T13:49:56.495Z,11.52
2023-01-29T13:52:36.452Z,11.38
2023-01-29T13:55:26.406Z,11.30
2023-01-29T13:57:56.791Z,10.85
2023-01-29T14:00:30.824Z,10.80
2023-01-29T14:03:00.179Z,13.20
2023-01-29T14:05:29.818Z,10.15
2023-01-29T14:08:00.116Z,12.32
2023-01-29T14:10:29.139Z,12.23
2023-01-29T14:13:15.656Z,10.82
2023-01-29T14:15:42.275Z,13.38
2023-01-29T14:18:08.837Z,13.48
2023-01-29T14:20:47.247Z,11.93
2023-01-29T14:23:46.810Z,11.65
2023-01-29T14:26:45.293Z,11.52
2023-01-29T14:29:34.691Z,13.95
2023-01-29T14:32:12.095Z,15.00
2023-01-29T14:34:51.330Z,13.10
2023-01-29T14:37:20.557Z,13.00
2023-01-29T14:39:50.314Z,15.00
2023-01-29T14:42:44.309Z,14.85
2023-01-29T14:45:23.447Z,11.95
2023-01-29T14:47:50.007Z,13.40
2023-01-29T14:50:28.591Z,15.05
2023-01-29T14:53:03.415Z,12.02
2023-01-29T14:55:37.303Z,14.77
2023-01-29T14:58:04.903Z,13.85
2023-01-29T15:00:36.987Z,14.52
2023-01-29T15:03:12.267Z,14.05
2023-01-29T15:05:40.305Z,15.63
2023-01-29T15:08:08.741Z,16.20
2023-01-29T15:11:12.763Z,14.13
2023-01-29T15:14:24.061Z,15.52
2023-01-29T15:17:10.209Z,11.85
2023-01-29T15:19:44.904Z,13.80
2023-01-29T15:22:23.292Z,13.25
2023-01-29T15:25:15.313Z,12.38
2023-01-29T15:27:43.619Z,12.07
2023-01-29T15:30:29.252Z,12.65
2023-01-29T15:32:56.862Z,13.00
2023-01-29T15:35:35.587Z,11.70
2023-01-29T15:38:07.300Z,12.02
2023-01-29T15:40:34.869Z,9.95
2023-01-29T15:43:01.696Z,12.15
2023-01-29T15:45:31.516Z,16.27
2023-01-29T15:48:12.916Z,16.70
2023-01-29T15:50:42.359Z,12.07
2023-01-29T15:53:21.540Z,13.63
2023-01-29T15:55:48.593Z,13.40
2023-01-29T15:58:24.231Z,13.40
2023-01-29T16:00:56.726Z,12.80
2023-01-29T16:03:25.091Z,14.35
2023-01-29T16:05:52.564Z,13.38
2023-01-29T16:08:21.956Z,12.77
2023-01-29T16:10:55.322Z,13.75
2023-01-29T16:13:29.236Z,13.98
2023-01-29T16:16:02.571Z,12.40
2023-01-29T16:18:47.750Z,13.98
2023-01-29T16:24:12.090Z,13.00
2023-01-29T16:26:43.942Z,12.52
2023-01-29T16:29:13.566Z,12.82
2023-01-29T16:31:43.437Z,13.88
2023-01-29T16:34:26.728Z,14.13
2023-01-29T16:36:55.102Z,14.25
2023-01-29T16:39:25.509Z,14.23
2023-01-29T16:42:10.874Z,15.50
2023-01-29T16:44:45.822Z,15.45
2023-01-29T16:47:25.709Z,13.27
2023-01-29T16:49:59.438Z,15.02
2023-01-29T16:52:32.369Z,15.32
2023-01-29T16:55:12.918Z,13.63
2023-01-29T16:57:40.731Z,14.20
2023-01-29T17:00:18.198Z,14.15
2023-01-29T17:02:44.957Z,14.82
2023-01-29T17:05:23.732Z,14.65
2023-01-29T17:07:50.888Z,16.08
2023-01-29T17:10:21.973Z,15.27
2023-01-29T17:12:55.890Z,15.20
2023-01-29T17:15:47.778Z,15.48
2023-01-29T17:18:22.993Z,14.82
2023-01-29T17:20:50.694Z,15.38
2023-01-29T17:23:17.387Z,14.73
2023-01-29T17:25:44.991Z,15.85
2023-01-29T17:28:13.948Z,13.93
2023-01-29T17:30:41.313Z,16.35
2023-01-29T17:33:17.187Z,16.40
2023-01-29T17:35:45.533Z,15.55
2023-01-29T17:38:25.025Z,17.02
2023-01-29T17:41:11.940Z,15.65
2023-01-29T17:43:38.705Z,13.88
2023-01-29T17:46:05.861Z,14.48
2023-01-29T17:48:32.821Z,13.65
2023-01-29T17:51:04.632Z,15.68
2023-01-29T17:53:45.598Z,15.68
2023-01-29T17:56:27.658Z,15.90
2023-01-29T17:58:54.479Z,14.90
2023-01-29T18:01:21.452Z,15.88
2023-01-29T18:03:48.189Z,14.40
2023-01-29T18:06:28.161Z,14.98
2023-01-29T18:08:54.849Z,17.17
2023-01-29T18:11:21.624Z,17.10
2023-01-29T18:13:48.754Z,16.25
2023-01-29T18:16:16.080Z,20.63
2023-01-29T18:18:42.729Z,15.70
2023-01-29T18:21:09.387Z,16.58
2023-01-29T18:23:36.343Z,17.38
2023-01-29T18:26:03.115Z,16.73
2023-01-29T18:28:29.957Z,14.70
2023-01-29T18:30:56.690Z,15.95
2023-01-29T18:33:24.244Z,16.08
2023-01-29T18:35:51.092Z,13.60
2023-01-29T18:38:18.180Z,19.13
2023-01-29T18:40:44.812Z,17.73
2023-01-29T18:43:11.781Z,15.68
2023-01-29T18:45:38.510Z,18.52
2023-01-29T18:48:05.799Z,19.45
2023-01-29T18:50:32.613Z,13.45
2023-01-29T18:52:59.524Z,16.50
2023-01-29T18:55:29.001Z,17.38
2023-01-29T18:58:26.937Z,16.35
2023-01-29T19:00:43.759Z,17.13
2023-01-29T19:03:10.942Z,16.58
2023-01-29T19:05:37.625Z,16.95
2023-01-29T19:08:05.839Z,18.17
2023-01-29T19:10:33.007Z,15.43
2023-01-29T19:12:59.661Z,16.88
2023-01-29T19:15:26.534Z,16.40
2023-01-29T19:17:56.620Z,17.40
2023-01-29T19:20:23.685Z,19.48
2023-01-29T19:22:50.347Z,16.50
2023-01-29T19:25:17.960Z,16.85
2023-01-29T19:27:45.980Z,19.00
2023-01-29T19:30:13.103Z,16.38
2023-01-29T19:32:40.697Z,18.02
2023-01-29T19:35:07.819Z,17.50
2023-01-29T19:37:34.497Z,18.15
2023-01-29T19:40:04.303Z,16.80
2023-01-29T19:42:30.899Z,15.98
2023-01-29T19:44:57.608Z,17.52
2023-01-29T19:47:24.510Z,19.33
2023-01-29T19:49:51.191Z,18.52
2023-01-29T19:52:49.782Z,19.42
2023-01-29T19:55:19.057Z,18.08
2023-01-29T19:57:46.335Z,18.08
2023-01-29T20:00:15.661Z,17.15
2023-01-29T20:02:42.401Z,16.63
2023-01-29T20:05:12.001Z,16.67
2023-01-29T20:07:42.556Z,17.08
2023-01-29T20:10:17.120Z,17.77
2023-01-29T20:12:45.189Z,18.05
2023-01-29T20:15:15.028Z,18.63
2023-01-29T20:17:41.894Z,17.08
2023-01-29T20:20:09.350Z,18.00
2023-01-29T20:22:36.195Z,16.92
2023-01-29T20:25:02.929Z,20.27
2023-01-29T20:27:29.549Z,23.10
2023-01-29T20:29:56.128Z,18.30
2023-01-29T20:32:22.759Z,19.92
2023-01-29T20:34:52.158Z,14.85
2023-01-29T20:37:19.426Z,20.05
2023-01-29T20:39:46.067Z,19.30
2023-01-29T20:42:13.007Z,22.17
2023-01-29T20:44:39.683Z,19.13
2023-01-29T20:47:06.298Z,18.92
2023-01-29T20:49:33.136Z,17.90
2023-01-29T20:51:59.824Z,17.88
2023-01-29T20:54:26.514Z,19.15
2023-01-29T20:56:53.482Z,19.58
2023-01-29T20:59:23.611Z,20.55
2023-01-29T21:01:50.332Z,21.42
2023-01-29T21:04:17.395Z,20.05
2023-01-29T21:06:44.012Z,21.83
2023-01-29T21:09:10.652Z,20.98
2023-01-29T21:11:37.309Z,21.88
2023-01-29T21:14:03.982Z,17.98
2023-01-29T21:16:30.898Z,19.92
2023-01-29T21:18:58.744Z,20.77
2023-01-29T21:21:26.693Z,19.67
2023-01-29T21:23:53.668Z,18.63
2023-01-29T21:26:20.449Z,20.02
2023-01-29T21:28:47.450Z,19.73
2023-01-29T21:31:16.377Z,19.50
2023-01-29T21:33:43.886Z,18.90
2023-01-29T21:36:10.956Z,19.33
2023-01-29T21:38:38.054Z,18.25
2023-01-29T21:41:08.210Z,19.02
2023-01-29T21:43:34.901Z,17.95
2023-01-29T21:46:11.720Z,17.20
2023-01-29T21:48:39.809Z,19.05
2023-01-29T21:51:07.233Z,20.13
2023-01-29T21:53:34.344Z,18.73
2023-01-29T21:56:02.569Z,20.13
2023-01-29T21:58:29.985Z,22.77
2023-01-29T22:00:56.969Z,20.48
2023-01-29T22:03:42.595Z,21.05
2023-01-29T22:06:09.425Z,20.98
2023-01-29T22:08:36.106Z,19.33
2023-01-29T22:11:07.315Z,22.60
2023-01-29T22:13:34.155Z,18.50
2023-01-29T22:16:01.068Z,19.20
2023-01-29T22:18:27.694Z,21.15
2023-01-29T22:20:55.767Z,18.17
2023-01-29T22:23:23.165Z,18.35
2023-01-29T22:25:50.151Z,18.83
2023-01-29T22:28:17.845Z,17.48
2023-01-29T22:30:45.227Z,19.98
2023-01-29T22:33:12.371Z,17.92
2023-01-29T22:35:38.975Z,20.92
2023-01-29T22:38:05.893Z,20.15
2023-01-29T22:40:32.694Z,17.85
2023-01-29T22:43:12.494Z,18.17
2023-01-29T22:45:39.737Z,18.70
2023-01-29T22:48:07.987Z,16.13
2023-01-29T22:50:34.800Z,18.23
2023-01-29T22:53:01.356Z,18.52
2023-01-29T22:55:27.946Z,17.83
2023-01-29T22:57:54.605Z,17.63
2023-01-29T23:00:21.377Z,19.00
2023-01-29T23:02:48.534Z,16.40
2023-01-29T23:05:15.324Z,16.48
2023-01-29T23:07:41.978Z,14.77
2023-01-29T23:10:10.150Z,16.10
2023-01-29T23:12:36.801Z,12.98
2023-01-29T23:15:03.665Z,14.95
2023-01-29T23:17:30.329Z,13.82
2023-01-29T23:19:57.123Z,13.30
2023-01-29T23:22:39.989Z,11.50
2023-01-29T23:25:07.083Z,11.32
2023-01-29T23:27:33.645Z,11.00
2023-01-29T23:30:00.281Z,11.15
2023-01-29T23:32:26.914Z,11.25
2023-01-29T23:34:53.621Z,9.75
2023-01-29T23:37:20.323Z,11.38
2023-01-29T23:39:47.168Z,11.77
2023-01-29T23:42:13.770Z,11.05
2023-01-29T23:44:40.488Z,9.63
2023-01-29T23:47:08.436Z,10.13
2023-01-29T23:49:35.352Z,9.98
2023-01-29T23:52:02.388Z,11.00
2023-01-29T23:54:29.338Z,12.43
2023-01-29T23:56:55.954Z,13.02
2023-01-29T23:59:22.801Z,12.48
